createdAt,value
2022-08-17T00:03:10.822Z,13.40
2022-08-17T00:05:45.082Z,13.70
2022-08-17T00:08:18.739Z,13.30
2022-08-17T00:10:50.435Z,14.00
2022-08-17T00:13:26.101Z,14.90
2022-08-17T00:16:00.243Z,14.00
2022-08-17T00:19:00.394Z,13.80
2022-08-17T00:21:25.511Z,13.80
2022-08-17T00:23:57.351Z,14.30
2022-08-17T00:26:34.631Z,15.50
2022-08-17T00:29:20.047Z,15.50
2022-08-17T00:31:52.271Z,15.70
2022-08-17T00:34:25.697Z,16.20
2022-08-17T00:36:59.617Z,16.50
2022-08-17T00:39:31.411Z,16.30
2022-08-17T00:42:03.087Z,16.70
2022-08-17T00:44:34.801Z,17.10
2022-08-17T00:49:36.533Z,18.30
2022-08-17T00:52:11.979Z,17.20
2022-08-17T00:54:44.858Z,16.70
2022-08-17T00:57:19.340Z,16.50
2022-08-17T01:00:01.802Z,16.50
2022-08-17T01:02:41.736Z,18.80
2022-08-17T01:05:18.575Z,18.50
2022-08-17T01:07:51.183Z,19.40
2022-08-17T01:11:00.678Z,20.30
2022-08-17T01:13:16.378Z,19.50
2022-08-17T01:15:50.197Z,20.40
2022-08-17T01:18:21.719Z,20.40
2022-08-17T01:23:24.818Z,18.70
2022-08-17T01:25:57.399Z,18.90
2022-08-17T01:28:52.688Z,17.70
2022-08-17T01:31:23.147Z,16.80
2022-08-17T01:36:24.671Z,18.80
2022-08-17T01:41:26.822Z,14.70
2022-08-17T01:46:32.339Z,13.20
2022-08-17T01:49:04.888Z,13.90
2022-08-17T01:51:36.548Z,12.90
2022-08-17T01:56:40.299Z,12.00
2022-08-17T01:59:12.619Z,18.70
2022-08-17T02:01:44.916Z,13.60
2022-08-17T02:04:16.780Z,16.20
2022-08-17T02:06:53.364Z,16.60
2022-08-17T02:09:29.552Z,18.20
2022-08-17T02:12:37.939Z,17.50
2022-08-17T02:14:55.847Z,19.50
2022-08-17T02:19:57.419Z,19.30
2022-08-17T02:22:29.082Z,17.00
2022-08-17T02:27:34.150Z,19.00
2022-08-17T02:32:56.283Z,19.50
2022-08-17T02:35:28.323Z,18.20
2022-08-17T02:38:01.717Z,17.60
2022-08-17T02:40:36.163Z,15.60
2022-08-17T02:43:08.402Z,13.50
2022-08-17T02:48:09.922Z,12.40
2022-08-17T02:50:41.510Z,14.20
2022-08-17T02:55:43.576Z,15.70
2022-08-17T02:58:15.203Z,17.90
2022-08-17T03:01:07.036Z,18.50
2022-08-17T03:03:39.111Z,22.20
2022-08-17T03:06:11.787Z,21.20
2022-08-17T03:08:43.426Z,20.40
2022-08-17T03:11:14.956Z,17.30
2022-08-17T03:13:46.784Z,19.70
2022-08-17T03:16:18.840Z,22.50
2022-08-17T03:18:50.448Z,23.90
2022-08-17T03:23:54.396Z,20.80
2022-08-17T03:26:29.658Z,16.90
2022-08-17T03:29:01.529Z,24.10
2022-08-17T03:31:33.292Z,20.00
2022-08-17T03:34:09.025Z,17.50
2022-08-17T03:36:40.684Z,15.80
2022-08-17T03:41:43.948Z,16.60
2022-08-17T03:44:15.413Z,18.50
2022-08-17T03:49:52.412Z,13.40
2022-08-17T03:52:41.415Z,16.30
2022-08-17T03:55:36.378Z,17.30
2022-08-17T03:58:08.175Z,17.60
2022-08-17T04:00:40.721Z,19.70
2022-08-17T04:03:12.501Z,17.70
2022-08-17T04:08:14.576Z,18.60
2022-08-17T04:10:46.308Z,17.80
2022-08-17T04:13:24.732Z,18.10
2022-08-17T04:15:59.674Z,17.40
2022-08-17T04:18:31.304Z,18.40
2022-08-17T04:21:05.344Z,17.60
2022-08-17T04:23:38.161Z,18.60
2022-08-17T04:26:09.803Z,17.50
2022-08-17T04:29:01.488Z,16.80
2022-08-17T04:34:03.448Z,18.60
2022-08-17T04:36:35.254Z,17.90
2022-08-17T04:39:06.998Z,18.40
2022-08-17T04:42:04.635Z,17.00
2022-08-17T04:44:37.940Z,18.00
2022-08-17T04:47:10.672Z,17.20
2022-08-17T04:49:45.471Z,17.30
2022-08-17T04:52:29.647Z,16.50
2022-08-17T04:55:13.937Z,16.90
2022-08-17T04:57:45.769Z,18.70
2022-08-17T05:00:18.616Z,16.40
2022-08-17T05:02:50.997Z,17.50
2022-08-17T05:05:23.957Z,15.80
2022-08-17T05:07:56.825Z,14.90
2022-08-17T05:10:29.505Z,14.30
2022-08-17T05:13:05.347Z,14.40
2022-08-17T05:15:45.176Z,14.50
2022-08-17T05:18:19.600Z,17.10
2022-08-17T05:23:25.619Z,14.60
2022-08-17T05:25:58.641Z,17.10
2022-08-17T05:28:30.635Z,15.30
2022-08-17T05:31:03.584Z,13.60
2022-08-17T05:33:38.190Z,14.10
2022-08-17T05:36:41.831Z,13.60
2022-08-17T05:39:04.268Z,12.50
2022-08-17T05:41:35.919Z,14.40
2022-08-17T05:44:07.669Z,12.60
2022-08-17T05:46:41.201Z,12.10
2022-08-17T05:49:12.843Z,10.70
2022-08-17T05:54:31.927Z,11.10
2022-08-17T05:57:31.013Z,11.70
2022-08-17T06:00:06.551Z,11.30
2022-08-17T06:02:52.333Z,11.80
2022-08-17T06:05:36.690Z,13.70
2022-08-17T06:08:13.979Z,12.80
2022-08-17T06:10:48.811Z,11.90
2022-08-17T06:13:31.994Z,10.80
2022-08-17T06:16:32.930Z,11.10
2022-08-17T06:19:01.639Z,10.60
2022-08-17T06:21:35.554Z,10.90
2022-08-17T06:24:09.201Z,9.90
2022-08-17T06:26:43.392Z,9.70
2022-08-17T06:29:21.779Z,9.10
2022-08-17T06:31:53.547Z,9.40
2022-08-17T06:34:25.199Z,9.30
2022-08-17T06:37:01.305Z,9.80
2022-08-17T06:39:40.310Z,10.10
2022-08-17T06:43:02.548Z,9.80
2022-08-17T06:45:13.841Z,9.30
2022-08-17T06:47:49.204Z,9.00
2022-08-17T06:50:23.404Z,9.00
2022-08-17T06:52:57.292Z,8.80
2022-08-17T06:55:37.913Z,8.60
2022-08-17T06:58:15.838Z,8.60
2022-08-17T07:00:48.816Z,9.30
2022-08-17T07:03:27.976Z,8.40
2022-08-17T07:06:00.979Z,10.70
2022-08-17T07:08:36.161Z,10.40
2022-08-17T07:11:10.388Z,9.60
2022-08-17T07:13:51.338Z,9.20
2022-08-17T07:21:46.324Z,9.10
2022-08-17T07:24:31.139Z,8.40
2022-08-17T07:27:12.062Z,9.00
2022-08-17T07:29:47.296Z,8.70
2022-08-17T07:32:20.944Z,9.20
2022-08-17T07:35:15.211Z,9.90
2022-08-17T07:37:53.357Z,10.40
2022-08-17T07:40:34.835Z,10.50
2022-08-17T07:43:23.117Z,9.70
2022-08-17T07:46:31.351Z,9.70
2022-08-17T07:49:20.191Z,9.60
2022-08-17T07:52:24.773Z,8.80
2022-08-17T07:54:52.732Z,9.20
2022-08-17T07:57:36.875Z,8.90
2022-08-17T08:00:17.107Z,9.40
2022-08-17T08:03:00.301Z,9.00
2022-08-17T08:05:49.428Z,9.50
2022-08-17T08:08:35.907Z,9.50
2022-08-17T08:11:11.046Z,9.80
2022-08-17T08:13:45.864Z,9.50
2022-08-17T08:16:29.412Z,9.40
2022-08-17T08:19:02.389Z,10.20
2022-08-17T08:21:41.962Z,8.70
2022-08-17T08:24:38.091Z,9.30
2022-08-17T08:27:13.086Z,9.60
2022-08-17T08:29:48.196Z,8.60
2022-08-17T08:32:29.008Z,7.90
2022-08-17T08:35:04.870Z,8.60
2022-08-17T08:37:43.487Z,7.60
2022-08-17T08:40:25.848Z,7.60
2022-08-17T08:43:02.645Z,7.30
2022-08-17T08:45:38.447Z,7.90
2022-08-17T08:48:45.898Z,7.50
2022-08-17T08:51:12.258Z,7.50
2022-08-17T08:53:48.836Z,7.90
2022-08-17T08:56:23.763Z,7.50
2022-08-17T08:58:59.688Z,7.00
2022-08-17T09:01:35.935Z,7.90
2022-08-17T09:04:25.229Z,7.40
2022-08-17T09:07:07.964Z,6.80
2022-08-17T09:09:47.143Z,7.80
2022-08-17T09:12:22.757Z,7.50
2022-08-17T09:14:56.077Z,6.70
2022-08-17T09:17:31.431Z,6.40
2022-08-17T09:20:05.497Z,6.30
2022-08-17T09:22:38.969Z,6.70
2022-08-17T09:25:12.248Z,6.00
2022-08-17T09:27:52.274Z,6.10
2022-08-17T09:30:25.259Z,6.30
2022-08-17T09:32:59.054Z,6.90
2022-08-17T09:35:37.112Z,7.00
2022-08-17T09:38:18.706Z,7.00
2022-08-17T09:40:53.286Z,7.10
2022-08-17T09:43:30.808Z,7.50
2022-08-17T09:46:04.193Z,7.00
2022-08-17T09:48:37.589Z,7.50
2022-08-17T09:51:10.732Z,7.50
2022-08-17T09:53:44.543Z,7.30
2022-08-17T09:56:45.519Z,6.70
2022-08-17T09:59:38.206Z,8.00
2022-08-17T10:02:25.531Z,7.90
2022-08-17T10:05:02.945Z,6.90
2022-08-17T10:07:37.349Z,7.80
2022-08-17T10:10:14.342Z,6.70
2022-08-17T10:12:50.015Z,6.90
2022-08-17T10:15:31.620Z,7.00
2022-08-17T10:18:21.572Z,7.60
2022-08-17T10:21:17.171Z,6.60
2022-08-17T10:24:06.610Z,7.20
2022-08-17T10:26:53.459Z,6.50
2022-08-17T10:29:30.407Z,6.60
2022-08-17T10:32:23.714Z,7.20
2022-08-17T10:35:38.618Z,7.80
2022-08-17T10:38:34.718Z,6.60
2022-08-17T10:41:17.708Z,6.60
2022-08-17T10:44:36.554Z,6.70
2022-08-17T10:47:02.952Z,5.80
2022-08-17T10:49:36.219Z,6.50
2022-08-17T10:52:26.442Z,6.70
2022-08-17T10:55:14.762Z,6.40
2022-08-17T10:57:47.339Z,6.40
2022-08-17T11:00:53.648Z,6.10
2022-08-17T11:03:25.834Z,6.70
2022-08-17T11:06:00.914Z,6.00
2022-08-17T11:08:57.782Z,5.90
2022-08-17T11:11:47.594Z,5.10
2022-08-17T11:14:38.341Z,6.00
2022-08-17T11:17:45.360Z,5.70
2022-08-17T11:20:56.096Z,5.40
2022-08-17T11:23:42.590Z,6.40
2022-08-17T11:26:26.308Z,6.20
2022-08-17T11:29:00.291Z,5.50
2022-08-17T11:31:39.308Z,6.20
2022-08-17T11:34:21.486Z,5.40
2022-08-17T11:37:16.899Z,5.30
2022-08-17T11:40:36.561Z,6.00
2022-08-17T11:43:25.485Z,5.60
2022-08-17T11:46:16.317Z,5.50
2022-08-17T11:49:15.375Z,5.90
2022-08-17T11:52:13.320Z,5.50
2022-08-17T11:54:46.945Z,5.60
2022-08-17T11:58:01.928Z,5.10
2022-08-17T12:00:54.980Z,5.40
2022-08-17T12:03:55.903Z,6.30
2022-08-17T12:06:48.198Z,5.50
2022-08-17T12:09:22.540Z,4.60
2022-08-17T12:12:12.373Z,4.70
2022-08-17T12:17:46.583Z,4.20
2022-08-17T12:20:25.794Z,4.50
2022-08-17T12:23:01.455Z,4.10
2022-08-17T12:25:35.210Z,3.80
2022-08-17T12:28:07.857Z,4.20
2022-08-17T12:30:39.775Z,4.80
2022-08-17T12:33:27.873Z,3.70
2022-08-17T12:36:03.248Z,3.90
2022-08-17T12:38:36.348Z,4.60
2022-08-17T12:41:22.792Z,4.00
2022-08-17T12:44:01.890Z,3.90
2022-08-17T12:46:36.264Z,4.10
2022-08-17T12:49:23.123Z,3.90
2022-08-17T12:51:55.740Z,3.60
2022-08-17T12:54:40.538Z,4.30
2022-08-17T12:57:14.862Z,4.20
2022-08-17T12:59:48.249Z,4.20
2022-08-17T13:02:40.573Z,4.60
2022-08-17T13:05:19.624Z,3.90
2022-08-17T13:07:53.551Z,3.80
2022-08-17T13:10:32.210Z,3.70
2022-08-17T13:13:06.162Z,3.90
2022-08-17T13:15:43.263Z,4.50
2022-08-17T13:18:43.569Z,4.10
2022-08-17T13:21:27.172Z,4.20
2022-08-17T13:24:00.536Z,4.70
2022-08-17T13:26:34.393Z,4.20
2022-08-17T13:29:08.048Z,4.80
2022-08-17T13:31:52.297Z,4.00
2022-08-17T13:35:03.727Z,3.80
2022-08-17T13:37:34.057Z,4.40
2022-08-17T13:40:21.625Z,4.30
2022-08-17T13:42:54.316Z,4.80
2022-08-17T13:45:39.278Z,4.20
2022-08-17T13:48:21.113Z,4.60
2022-08-17T13:51:14.014Z,4.70
2022-08-17T13:53:55.183Z,4.80
2022-08-17T13:56:42.444Z,3.80
2022-08-17T13:59:15.413Z,3.90
2022-08-17T14:01:53.398Z,4.40
2022-08-17T14:04:28.090Z,3.80
2022-08-17T14:07:01.280Z,4.80
2022-08-17T14:09:37.384Z,4.70
2022-08-17T14:12:12.445Z,4.60
2022-08-17T14:14:43.994Z,4.30
2022-08-17T14:17:15.563Z,4.60
2022-08-17T14:19:47.115Z,4.30
2022-08-17T14:22:27.272Z,3.90
2022-08-17T14:24:58.907Z,4.40
2022-08-17T14:27:32.262Z,4.80
2022-08-17T14:30:04.083Z,4.90
2022-08-17T14:32:37.234Z,4.70
2022-08-17T14:35:10.351Z,4.60
2022-08-17T14:37:41.847Z,4.20
2022-08-17T14:40:49.386Z,4.10
2022-08-17T14:43:21.449Z,4.30
2022-08-17T14:45:53.266Z,3.90
2022-08-17T14:48:24.942Z,4.20
2022-08-17T14:50:58.483Z,3.80
2022-08-17T14:53:30.392Z,4.10
2022-08-17T14:56:03.104Z,4.60
2022-08-17T14:58:34.707Z,4.00
2022-08-17T15:01:08.060Z,3.90
2022-08-17T15:03:43.650Z,3.80
2022-08-17T15:06:16.350Z,3.70
2022-08-17T15:08:47.915Z,3.70
2022-08-17T15:11:19.568Z,3.60
2022-08-17T15:13:52.991Z,3.30
2022-08-17T15:16:24.968Z,3.70
2022-08-17T15:18:56.517Z,3.20
2022-08-17T15:21:28.634Z,3.80
2022-08-17T15:24:00.111Z,3.80
2022-08-17T15:26:32.000Z,3.80
2022-08-17T15:29:03.533Z,3.70
2022-08-17T15:31:35.474Z,4.10
2022-08-17T15:34:07.972Z,3.70
2022-08-17T15:36:45.508Z,4.40
2022-08-17T15:39:22.422Z,4.00
2022-08-17T15:41:58.140Z,4.00
2022-08-17T15:44:35.139Z,3.80
2022-08-17T15:47:07.028Z,4.10
2022-08-17T15:49:38.491Z,4.20
2022-08-17T15:52:17.195Z,4.40
2022-08-17T15:54:53.249Z,4.20
2022-08-17T15:57:26.028Z,3.90
2022-08-17T15:59:58.960Z,4.40
2022-08-17T16:03:45.966Z,4.40
2022-08-17T16:05:25.383Z,3.80
2022-08-17T16:07:57.347Z,3.90
2022-08-17T16:10:35.447Z,4.00
2022-08-17T16:13:17.554Z,4.80
2022-08-17T16:15:57.264Z,4.10
2022-08-17T16:18:31.862Z,3.90
2022-08-17T16:21:19.190Z,3.90
2022-08-17T16:23:51.639Z,3.90
2022-08-17T16:26:23.351Z,4.70
2022-08-17T16:28:57.224Z,3.90
2022-08-17T16:31:29.205Z,4.60
2022-08-17T16:34:15.674Z,4.10
2022-08-17T16:36:54.899Z,4.10
2022-08-17T16:39:29.461Z,4.30
2022-08-17T16:42:03.134Z,4.90
2022-08-17T16:44:34.882Z,5.00
2022-08-17T16:47:07.759Z,5.40
2022-08-17T16:49:39.665Z,5.10
2022-08-17T16:52:11.746Z,4.80
2022-08-17T16:54:46.287Z,5.80
2022-08-17T16:57:17.979Z,6.00
2022-08-17T16:59:51.475Z,5.80
2022-08-17T17:02:30.086Z,6.00
2022-08-17T17:05:05.548Z,6.00
2022-08-17T17:08:03.704Z,6.20
2022-08-17T17:10:37.854Z,6.00
2022-08-17T17:13:11.318Z,6.10
2022-08-17T17:15:51.511Z,6.10
2022-08-17T17:18:23.862Z,7.00
2022-08-17T17:20:58.631Z,6.20
2022-08-17T17:23:39.660Z,6.40
2022-08-17T17:26:25.677Z,6.50
2022-08-17T17:29:08.290Z,5.90
2022-08-17T17:31:42.772Z,6.10
2022-08-17T17:34:16.104Z,6.90
2022-08-17T17:36:51.854Z,6.70
2022-08-17T17:39:29.626Z,6.90
2022-08-17T17:42:06.126Z,6.80
2022-08-17T17:44:39.534Z,6.80
2022-08-17T17:47:11.647Z,8.00
2022-08-17T17:49:44.882Z,6.90
2022-08-17T17:52:19.711Z,7.70
2022-08-17T17:55:00.175Z,7.60
2022-08-17T17:57:38.907Z,8.20
2022-08-17T18:00:14.201Z,10.10
2022-08-17T18:02:55.905Z,10.40
2022-08-17T18:06:16.609Z,9.10
2022-08-17T18:08:57.213Z,8.60
2022-08-17T18:11:41.859Z,8.30
2022-08-17T18:14:20.036Z,8.50
2022-08-17T18:16:56.138Z,8.20
2022-08-17T18:19:29.548Z,8.80
2022-08-17T18:22:07.458Z,8.20
2022-08-17T18:24:45.708Z,8.30
2022-08-17T18:27:26.383Z,7.20
2022-08-17T18:29:59.290Z,7.90
2022-08-17T18:32:33.499Z,8.40
2022-08-17T18:35:29.041Z,8.00
2022-08-17T18:38:20.598Z,8.60
2022-08-17T18:41:02.673Z,9.20
2022-08-17T18:43:44.126Z,8.00
2022-08-17T18:46:30.779Z,8.50
2022-08-17T18:49:03.873Z,7.50
2022-08-17T18:51:40.606Z,8.40
2022-08-17T18:54:25.017Z,7.90
2022-08-17T18:56:59.114Z,7.30
2022-08-17T18:59:35.468Z,8.70
2022-08-17T19:02:45.684Z,8.60
2022-08-17T19:05:34.987Z,9.10
2022-08-17T19:08:22.324Z,9.20
2022-08-17T19:10:56.102Z,8.50
2022-08-17T19:13:30.281Z,8.20
2022-08-17T19:16:11.426Z,9.00
2022-08-17T19:18:50.106Z,8.50
2022-08-17T19:21:24.973Z,9.90
2022-08-17T19:23:59.513Z,9.90
2022-08-17T19:26:50.782Z,7.90
2022-08-17T19:29:28.269Z,9.10
2022-08-17T19:32:00.205Z,8.80
2022-08-17T19:34:34.429Z,8.40
2022-08-17T19:37:11.762Z,9.40
2022-08-17T19:39:51.438Z,9.00
2022-08-17T19:42:28.779Z,8.20
2022-08-17T19:45:05.727Z,8.10
2022-08-17T19:47:57.797Z,9.00
2022-08-17T19:50:38.599Z,8.90
2022-08-17T19:53:15.447Z,8.70
2022-08-17T19:55:52.142Z,9.70
2022-08-17T19:58:30.472Z,9.20
2022-08-17T20:01:02.391Z,9.30
2022-08-17T20:03:36.152Z,9.50
2022-08-17T20:06:13.131Z,8.80
2022-08-17T20:08:50.255Z,8.90
2022-08-17T20:11:25.321Z,9.40
2022-08-17T20:14:00.295Z,9.70
2022-08-17T20:16:31.853Z,9.40
2022-08-17T20:21:37.513Z,9.20
2022-08-17T20:24:22.315Z,9.40
2022-08-17T20:26:58.354Z,10.60
2022-08-17T20:29:39.871Z,9.80
2022-08-17T20:32:27.199Z,10.80
2022-08-17T20:35:20.152Z,9.90
2022-08-17T20:37:59.993Z,10.10
2022-08-17T20:40:34.113Z,9.30
2022-08-17T20:43:51.454Z,10.70
2022-08-17T20:46:30.410Z,9.60
2022-08-17T20:49:14.765Z,10.60
2022-08-17T20:52:01.630Z,10.70
2022-08-17T20:54:48.302Z,9.40
2022-08-17T20:57:47.593Z,8.90
2022-08-17T21:00:45.973Z,9.50
2022-08-17T21:03:52.408Z,10.50
2022-08-17T21:06:25.453Z,11.10
2022-08-17T21:08:59.742Z,9.80
2022-08-17T21:12:04.568Z,10.00
2022-08-17T21:14:59.943Z,8.90
2022-08-17T21:17:38.297Z,10.40
2022-08-17T21:20:15.969Z,10.10
2022-08-17T21:22:54.298Z,10.20
2022-08-17T21:25:37.404Z,10.40
2022-08-17T21:28:13.719Z,10.90
2022-08-17T21:30:52.529Z,11.50
2022-08-17T21:33:31.914Z,11.40
2022-08-17T21:36:25.181Z,11.30
2022-08-17T21:39:01.502Z,10.00
2022-08-17T21:41:35.371Z,10.30
2022-08-17T21:44:12.959Z,10.40
2022-08-17T21:46:46.745Z,9.80
2022-08-17T21:49:19.443Z,8.90
2022-08-17T21:51:54.036Z,8.70
2022-08-17T21:54:36.216Z,8.40
2022-08-17T21:57:15.738Z,8.50
2022-08-17T21:59:47.607Z,8.10
2022-08-17T22:02:22.145Z,7.20
2022-08-17T22:05:02.166Z,8.00
2022-08-17T22:07:42.272Z,7.70
2022-08-17T22:10:33.146Z,7.60
2022-08-17T22:13:17.074Z,6.90
2022-08-17T22:15:50.988Z,7.20
2022-08-17T22:18:23.325Z,7.90
2022-08-17T22:20:55.635Z,7.50
2022-08-17T22:23:47.006Z,8.10
2022-08-17T22:26:19.792Z,7.50
2022-08-17T22:28:53.105Z,7.70
2022-08-17T22:31:25.512Z,7.40
2022-08-17T22:34:11.159Z,8.00
2022-08-17T22:36:43.005Z,7.90
2022-08-17T22:39:43.001Z,8.60
2022-08-17T22:42:17.398Z,7.90
2022-08-17T22:44:50.376Z,8.00
2022-08-17T22:47:43.251Z,7.50
2022-08-17T22:50:23.456Z,7.30
2022-08-17T22:53:19.239Z,7.20
2022-08-17T22:56:12.763Z,7.20
2022-08-17T22:59:08.709Z,8.30
2022-08-17T23:01:40.521Z,7.60
2022-08-17T23:04:13.414Z,7.30
2022-08-17T23:06:45.253Z,7.30
2022-08-17T23:09:16.692Z,7.40
2022-08-17T23:11:50.485Z,6.90
2022-08-17T23:14:22.658Z,7.60
2022-08-17T23:16:54.215Z,7.40
2022-08-17T23:19:25.813Z,6.70
2022-08-17T23:21:57.326Z,6.50
2022-08-17T23:24:30.401Z,6.50
2022-08-17T23:27:01.992Z,7.10
2022-08-17T23:29:34.275Z,7.20
2022-08-17T23:32:06.175Z,7.40
2022-08-17T23:34:37.539Z,7.90
2022-08-17T23:37:09.789Z,7.10
2022-08-17T23:39:41.150Z,7.60
2022-08-17T23:42:13.231Z,7.40
2022-08-17T23:44:45.135Z,8.30
2022-08-17T23:47:16.775Z,8.00
2022-08-17T23:52:18.518Z,8.70
2022-08-17T23:54:50.576Z,8.70
2022-08-17T23:57:33.144Z,8.60
